sensor_id;sensor_type;location;lat;lon;timestamp;P1;durP1;ratioP1;P2;durP2;ratioP2
65857;SDS011;53776;47.242;18.674;2022-07-06T00:02:23;5.15;;;4.30;;
65857;SDS011;53776;47.242;18.674;2022-07-06T00:04:48;6.18;;;3.83;;
65857;SDS011;53776;47.242;18.674;2022-07-06T00:07:13;5.45;;;4.10;;
65857;SDS011;53776;47.242;18.674;2022-07-06T00:09:40;4.70;;;3.97;;
65857;SDS011;53776;47.242;18.674;2022-07-06T00:12:06;4.70;;;4.30;;
65857;SDS011;53776;47.242;18.674;2022-07-06T00:14:32;5.65;;;4.13;;
65857;SDS011;53776;47.242;18.674;2022-07-06T00:16:58;5.15;;;4.40;;
65857;SDS011;53776;47.242;18.674;2022-07-06T00:19:23;5.38;;;4.00;;
65857;SDS011;53776;47.242;18.674;2022-07-06T00:21:49;6.20;;;4.07;;
65857;SDS011;53776;47.242;18.674;2022-07-06T00:24:14;15.60;;;4.70;;
65857;SDS011;53776;47.242;18.674;2022-07-06T00:29:08;6.45;;;4.25;;
65857;SDS011;53776;47.242;18.674;2022-07-06T00:31:33;4.35;;;3.92;;
65857;SDS011;53776;47.242;18.674;2022-07-06T00:33:58;6.47;;;4.28;;
65857;SDS011;53776;47.242;18.674;2022-07-06T00:36:24;7.00;;;4.32;;
65857;SDS011;53776;47.242;18.674;2022-07-06T00:38:49;7.80;;;4.32;;
65857;SDS011;53776;47.242;18.674;2022-07-06T00:41:15;4.88;;;4.30;;
65857;SDS011;53776;47.242;18.674;2022-07-06T00:43:49;7.07;;;4.07;;
65857;SDS011;53776;47.242;18.674;2022-07-06T00:46:16;5.53;;;4.45;;
65857;SDS011;53776;47.242;18.674;2022-07-06T00:48:41;5.97;;;4.78;;
65857;SDS011;53776;47.242;18.674;2022-07-06T00:51:07;5.10;;;4.50;;
65857;SDS011;53776;47.242;18.674;2022-07-06T00:53:32;8.05;;;5.10;;
65857;SDS011;53776;47.242;18.674;2022-07-06T00:55:58;6.80;;;4.75;;
65857;SDS011;53776;47.242;18.674;2022-07-06T00:58:23;5.55;;;5.05;;
65857;SDS011;53776;47.242;18.674;2022-07-06T01:00:49;5.40;;;4.80;;
65857;SDS011;53776;47.242;18.674;2022-07-06T01:03:15;7.65;;;5.00;;
65857;SDS011;53776;47.242;18.674;2022-07-06T01:05:40;9.15;;;5.32;;
65857;SDS011;53776;47.242;18.674;2022-07-06T01:08:06;8.27;;;5.00;;
65857;SDS011;53776;47.242;18.674;2022-07-06T01:10:31;7.88;;;5.68;;
65857;SDS011;53776;47.242;18.674;2022-07-06T01:12:57;5.70;;;5.10;;
65857;SDS011;53776;47.242;18.674;2022-07-06T01:15:23;6.47;;;5.30;;
65857;SDS011;53776;47.242;18.674;2022-07-06T01:17:50;6.60;;;5.03;;
65857;SDS011;53776;47.242;18.674;2022-07-06T01:20:19;5.75;;;5.22;;
65857;SDS011;53776;47.242;18.674;2022-07-06T01:22:47;10.00;;;5.15;;
65857;SDS011;53776;47.242;18.674;2022-07-06T01:25:13;5.70;;;4.88;;
65857;SDS011;53776;47.242;18.674;2022-07-06T01:27:40;5.88;;;5.28;;
65857;SDS011;53776;47.242;18.674;2022-07-06T01:30:07;6.38;;;5.03;;
65857;SDS011;53776;47.242;18.674;2022-07-06T01:32:34;7.22;;;5.30;;
65857;SDS011;53776;47.242;18.674;2022-07-06T01:35:00;7.88;;;5.00;;
65857;SDS011;53776;47.242;18.674;2022-07-06T01:37:25;7.05;;;5.43;;
65857;SDS011;53776;47.242;18.674;2022-07-06T01:39:51;8.90;;;5.68;;
65857;SDS011;53776;47.242;18.674;2022-07-06T01:42:16;7.28;;;5.65;;
65857;SDS011;53776;47.242;18.674;2022-07-06T01:44:42;6.78;;;5.07;;
65857;SDS011;53776;47.242;18.674;2022-07-06T01:47:09;9.30;;;5.10;;
65857;SDS011;53776;47.242;18.674;2022-07-06T01:49:35;9.57;;;5.07;;
65857;SDS011;53776;47.242;18.674;2022-07-06T01:52:00;8.77;;;5.35;;
65857;SDS011;53776;47.242;18.674;2022-07-06T01:54:26;5.97;;;5.10;;
65857;SDS011;53776;47.242;18.674;2022-07-06T01:56:51;7.18;;;5.03;;
65857;SDS011;53776;47.242;18.674;2022-07-06T01:59:17;7.00;;;5.05;;
65857;SDS011;53776;47.242;18.674;2022-07-06T02:01:42;6.10;;;5.50;;
65857;SDS011;53776;47.242;18.674;2022-07-06T02:04:07;5.93;;;5.38;;
65857;SDS011;53776;47.242;18.674;2022-07-06T02:06:33;7.80;;;5.45;;
65857;SDS011;53776;47.242;18.674;2022-07-06T02:08:58;6.28;;;5.10;;
65857;SDS011;53776;47.242;18.674;2022-07-06T02:11:24;6.55;;;5.13;;
65857;SDS011;53776;47.242;18.674;2022-07-06T02:13:49;12.55;;;5.13;;
65857;SDS011;53776;47.242;18.674;2022-07-06T02:16:15;7.13;;;5.85;;
65857;SDS011;53776;47.242;18.674;2022-07-06T02:18:40;8.32;;;5.60;;
65857;SDS011;53776;47.242;18.674;2022-07-06T02:21:06;8.43;;;5.53;;
65857;SDS011;53776;47.242;18.674;2022-07-06T02:23:31;6.45;;;5.32;;
65857;SDS011;53776;47.242;18.674;2022-07-06T02:25:56;8.40;;;5.47;;
65857;SDS011;53776;47.242;18.674;2022-07-06T02:28:22;8.45;;;5.50;;
65857;SDS011;53776;47.242;18.674;2022-07-06T02:30:47;7.28;;;5.32;;
65857;SDS011;53776;47.242;18.674;2022-07-06T02:33:13;6.25;;;5.15;;
65857;SDS011;53776;47.242;18.674;2022-07-06T02:35:38;6.97;;;4.93;;
65857;SDS011;53776;47.242;18.674;2022-07-06T02:38:07;6.40;;;5.50;;
65857;SDS011;53776;47.242;18.674;2022-07-06T02:40:32;7.05;;;4.82;;
65857;SDS011;53776;47.242;18.674;2022-07-06T02:42:58;7.00;;;5.03;;
65857;SDS011;53776;47.242;18.674;2022-07-06T02:45:23;7.05;;;5.20;;
65857;SDS011;53776;47.242;18.674;2022-07-06T02:47:49;9.07;;;5.40;;
65857;SDS011;53776;47.242;18.674;2022-07-06T02:50:15;7.38;;;5.32;;
65857;SDS011;53776;47.242;18.674;2022-07-06T02:52:41;9.13;;;5.10;;
65857;SDS011;53776;47.242;18.674;2022-07-06T02:55:07;7.35;;;4.90;;
65857;SDS011;53776;47.242;18.674;2022-07-06T02:57:32;8.98;;;5.22;;
65857;SDS011;53776;47.242;18.674;2022-07-06T02:59:58;10.25;;;5.13;;
65857;SDS011;53776;47.242;18.674;2022-07-06T03:02:23;9.93;;;5.18;;
65857;SDS011;53776;47.242;18.674;2022-07-06T03:04:49;8.82;;;4.65;;
65857;SDS011;53776;47.242;18.674;2022-07-06T03:07:15;11.82;;;5.00;;
65857;SDS011;53776;47.242;18.674;2022-07-06T03:09:40;7.20;;;4.97;;
65857;SDS011;53776;47.242;18.674;2022-07-06T03:12:06;5.88;;;4.78;;
65857;SDS011;53776;47.242;18.674;2022-07-06T03:14:32;7.93;;;5.43;;
65857;SDS011;53776;47.242;18.674;2022-07-06T03:16:57;8.00;;;5.07;;
65857;SDS011;53776;47.242;18.674;2022-07-06T03:19:23;7.50;;;5.00;;
65857;SDS011;53776;47.242;18.674;2022-07-06T03:21:48;8.48;;;5.30;;
65857;SDS011;53776;47.242;18.674;2022-07-06T03:24:14;6.75;;;4.68;;
65857;SDS011;53776;47.242;18.674;2022-07-06T03:26:39;7.80;;;5.50;;
65857;SDS011;53776;47.242;18.674;2022-07-06T03:29:05;5.45;;;4.82;;
65857;SDS011;53776;47.242;18.674;2022-07-06T03:31:30;5.68;;;4.72;;
65857;SDS011;53776;47.242;18.674;2022-07-06T03:33:56;6.07;;;5.47;;
65857;SDS011;53776;47.242;18.674;2022-07-06T03:36:21;7.18;;;5.20;;
65857;SDS011;53776;47.242;18.674;2022-07-06T03:38:46;7.55;;;5.30;;
65857;SDS011;53776;47.242;18.674;2022-07-06T03:41:12;6.50;;;5.00;;
65857;SDS011;53776;47.242;18.674;2022-07-06T03:43:37;7.20;;;5.35;;
65857;SDS011;53776;47.242;18.674;2022-07-06T03:46:03;13.40;;;5.78;;
65857;SDS011;53776;47.242;18.674;2022-07-06T03:48:28;6.78;;;6.07;;
65857;SDS011;53776;47.242;18.674;2022-07-06T03:50:54;6.28;;;5.07;;
65857;SDS011;53776;47.242;18.674;2022-07-06T03:53:20;12.30;;;5.88;;
65857;SDS011;53776;47.242;18.674;2022-07-06T03:55:45;6.40;;;5.60;;
65857;SDS011;53776;47.242;18.674;2022-07-06T03:58:31;10.65;;;5.38;;
65857;SDS011;53776;47.242;18.674;2022-07-06T04:00:56;5.85;;;5.25;;
65857;SDS011;53776;47.242;18.674;2022-07-06T04:03:22;6.82;;;5.38;;
65857;SDS011;53776;47.242;18.674;2022-07-06T04:05:47;8.52;;;5.47;;
65857;SDS011;53776;47.242;18.674;2022-07-06T04:08:13;6.53;;;5.20;;
65857;SDS011;53776;47.242;18.674;2022-07-06T04:10:38;7.38;;;5.13;;
65857;SDS011;53776;47.242;18.674;2022-07-06T04:13:03;7.47;;;5.15;;
65857;SDS011;53776;47.242;18.674;2022-07-06T04:15:29;5.72;;;4.93;;
65857;SDS011;53776;47.242;18.674;2022-07-06T04:17:54;6.50;;;5.28;;
65857;SDS011;53776;47.242;18.674;2022-07-06T04:20:21;15.70;;;5.70;;
65857;SDS011;53776;47.242;18.674;2022-07-06T04:22:47;9.43;;;5.35;;
65857;SDS011;53776;47.242;18.674;2022-07-06T04:25:13;8.13;;;4.93;;
65857;SDS011;53776;47.242;18.674;2022-07-06T04:27:39;9.00;;;5.28;;
65857;SDS011;53776;47.242;18.674;2022-07-06T04:30:06;7.43;;;5.13;;
65857;SDS011;53776;47.242;18.674;2022-07-06T04:32:32;11.50;;;5.60;;
65857;SDS011;53776;47.242;18.674;2022-07-06T04:34:58;8.27;;;5.38;;
65857;SDS011;53776;47.242;18.674;2022-07-06T04:37:23;9.52;;;5.25;;
65857;SDS011;53776;47.242;18.674;2022-07-06T04:39:49;8.05;;;5.40;;
65857;SDS011;53776;47.242;18.674;2022-07-06T04:42:14;10.63;;;5.38;;
65857;SDS011;53776;47.242;18.674;2022-07-06T04:44:40;9.18;;;5.20;;
65857;SDS011;53776;47.242;18.674;2022-07-06T04:47:05;7.72;;;5.32;;
65857;SDS011;53776;47.242;18.674;2022-07-06T04:49:31;10.60;;;5.38;;
65857;SDS011;53776;47.242;18.674;2022-07-06T04:51:57;7.20;;;5.20;;
65857;SDS011;53776;47.242;18.674;2022-07-06T04:54:22;8.88;;;5.28;;
65857;SDS011;53776;47.242;18.674;2022-07-06T04:56:48;8.45;;;5.20;;
65857;SDS011;53776;47.242;18.674;2022-07-06T04:59:13;7.18;;;5.22;;
65857;SDS011;53776;47.242;18.674;2022-07-06T05:01:39;7.50;;;5.50;;
65857;SDS011;53776;47.242;18.674;2022-07-06T05:04:05;8.55;;;5.75;;
65857;SDS011;53776;47.242;18.674;2022-07-06T05:06:31;9.10;;;5.00;;
65857;SDS011;53776;47.242;18.674;2022-07-06T05:08:57;8.02;;;5.57;;
65857;SDS011;53776;47.242;18.674;2022-07-06T05:11:24;5.00;;;4.40;;
65857;SDS011;53776;47.242;18.674;2022-07-06T05:13:50;6.80;;;4.85;;
65857;SDS011;53776;47.242;18.674;2022-07-06T05:16:15;9.43;;;5.25;;
65857;SDS011;53776;47.242;18.674;2022-07-06T05:18:41;6.80;;;4.97;;
65857;SDS011;53776;47.242;18.674;2022-07-06T05:21:06;7.78;;;4.70;;
65857;SDS011;53776;47.242;18.674;2022-07-06T05:23:32;6.78;;;5.35;;
65857;SDS011;53776;47.242;18.674;2022-07-06T05:25:57;5.93;;;4.60;;
65857;SDS011;53776;47.242;18.674;2022-07-06T05:28:22;7.35;;;5.45;;
65857;SDS011;53776;47.242;18.674;2022-07-06T05:30:48;10.38;;;5.05;;
65857;SDS011;53776;47.242;18.674;2022-07-06T05:33:14;8.85;;;5.13;;
65857;SDS011;53776;47.242;18.674;2022-07-06T05:35:39;8.38;;;4.88;;
65857;SDS011;53776;47.242;18.674;2022-07-06T05:38:05;13.02;;;5.10;;
65857;SDS011;53776;47.242;18.674;2022-07-06T05:40:30;5.78;;;5.00;;
65857;SDS011;53776;47.242;18.674;2022-07-06T05:42:56;10.27;;;5.20;;
65857;SDS011;53776;47.242;18.674;2022-07-06T05:45:21;6.57;;;5.28;;
65857;SDS011;53776;47.242;18.674;2022-07-06T05:47:47;9.45;;;4.97;;
65857;SDS011;53776;47.242;18.674;2022-07-06T05:50:32;6.35;;;4.55;;
65857;SDS011;53776;47.242;18.674;2022-07-06T05:53:01;7.50;;;5.22;;
65857;SDS011;53776;47.242;18.674;2022-07-06T05:55:28;7.95;;;4.95;;
65857;SDS011;53776;47.242;18.674;2022-07-06T05:57:53;7.32;;;5.13;;
65857;SDS011;53776;47.242;18.674;2022-07-06T06:00:20;5.63;;;4.90;;
65857;SDS011;53776;47.242;18.674;2022-07-06T06:02:49;6.30;;;5.03;;
65857;SDS011;53776;47.242;18.674;2022-07-06T06:05:15;7.47;;;5.63;;
65857;SDS011;53776;47.242;18.674;2022-07-06T06:07:41;6.68;;;5.32;;
65857;SDS011;53776;47.242;18.674;2022-07-06T06:10:08;9.65;;;5.72;;
65857;SDS011;53776;47.242;18.674;2022-07-06T06:12:35;8.15;;;5.82;;
65857;SDS011;53776;47.242;18.674;2022-07-06T06:15:02;6.07;;;5.20;;
65857;SDS011;53776;47.242;18.674;2022-07-06T06:17:28;9.77;;;5.50;;
65857;SDS011;53776;47.242;18.674;2022-07-06T06:19:53;7.22;;;5.50;;
65857;SDS011;53776;47.242;18.674;2022-07-06T06:22:19;7.20;;;5.53;;
65857;SDS011;53776;47.242;18.674;2022-07-06T06:24:44;8.82;;;6.07;;
65857;SDS011;53776;47.242;18.674;2022-07-06T06:27:10;12.73;;;6.20;;
65857;SDS011;53776;47.242;18.674;2022-07-06T06:29:36;7.03;;;6.00;;
65857;SDS011;53776;47.242;18.674;2022-07-06T06:32:02;7.78;;;5.60;;
65857;SDS011;53776;47.242;18.674;2022-07-06T06:34:27;8.35;;;6.25;;
65857;SDS011;53776;47.242;18.674;2022-07-06T06:36:53;7.18;;;5.28;;
65857;SDS011;53776;47.242;18.674;2022-07-06T06:39:18;7.07;;;5.25;;
65857;SDS011;53776;47.242;18.674;2022-07-06T06:41:43;11.32;;;5.47;;
65857;SDS011;53776;47.242;18.674;2022-07-06T06:44:09;6.50;;;4.53;;
65857;SDS011;53776;47.242;18.674;2022-07-06T06:46:34;5.90;;;4.75;;
65857;SDS011;53776;47.242;18.674;2022-07-06T06:49:00;7.18;;;4.55;;
65857;SDS011;53776;47.242;18.674;2022-07-06T06:51:25;6.43;;;4.30;;
65857;SDS011;53776;47.242;18.674;2022-07-06T06:53:51;6.88;;;4.57;;
65857;SDS011;53776;47.242;18.674;2022-07-06T06:56:16;9.23;;;4.50;;
65857;SDS011;53776;47.242;18.674;2022-07-06T06:58:42;5.20;;;4.07;;
65857;SDS011;53776;47.242;18.674;2022-07-06T07:01:08;9.57;;;4.75;;
65857;SDS011;53776;47.242;18.674;2022-07-06T07:03:33;5.82;;;4.30;;
65857;SDS011;53776;47.242;18.674;2022-07-06T07:05:59;6.50;;;4.57;;
65857;SDS011;53776;47.242;18.674;2022-07-06T07:08:24;7.05;;;4.47;;
65857;SDS011;53776;47.242;18.674;2022-07-06T07:10:50;8.95;;;4.32;;
65857;SDS011;53776;47.242;18.674;2022-07-06T07:13:16;5.40;;;4.28;;
65857;SDS011;53776;47.242;18.674;2022-07-06T07:15:42;7.53;;;3.95;;
65857;SDS011;53776;47.242;18.674;2022-07-06T07:18:07;5.97;;;4.35;;
65857;SDS011;53776;47.242;18.674;2022-07-06T07:20:33;8.77;;;4.15;;
65857;SDS011;53776;47.242;18.674;2022-07-06T07:22:59;7.22;;;4.40;;
65857;SDS011;53776;47.242;18.674;2022-07-06T07:25:25;9.57;;;4.32;;
65857;SDS011;53776;47.242;18.674;2022-07-06T07:27:51;4.65;;;3.75;;
65857;SDS011;53776;47.242;18.674;2022-07-06T07:30:17;8.68;;;4.00;;
65857;SDS011;53776;47.242;18.674;2022-07-06T07:32:42;8.65;;;4.10;;
65857;SDS011;53776;47.242;18.674;2022-07-06T07:35:08;9.45;;;4.63;;
65857;SDS011;53776;47.242;18.674;2022-07-06T07:37:34;5.03;;;3.65;;
65857;SDS011;53776;47.242;18.674;2022-07-06T07:40:00;7.43;;;3.83;;
65857;SDS011;53776;47.242;18.674;2022-07-06T07:42:26;10.98;;;4.30;;
65857;SDS011;53776;47.242;18.674;2022-07-06T07:44:51;4.45;;;3.75;;
65857;SDS011;53776;47.242;18.674;2022-07-06T07:47:17;5.32;;;4.28;;
65857;SDS011;53776;47.242;18.674;2022-07-06T07:49:42;6.03;;;3.63;;
65857;SDS011;53776;47.242;18.674;2022-07-06T07:52:07;11.57;;;3.97;;
65857;SDS011;53776;47.242;18.674;2022-07-06T07:54:33;6.45;;;3.75;;
65857;SDS011;53776;47.242;18.674;2022-07-06T07:56:59;5.00;;;3.60;;
65857;SDS011;53776;47.242;18.674;2022-07-06T07:59:24;7.60;;;3.80;;
65857;SDS011;53776;47.242;18.674;2022-07-06T08:01:50;5.32;;;3.58;;
65857;SDS011;53776;47.242;18.674;2022-07-06T08:04:16;10.60;;;3.45;;
65857;SDS011;53776;47.242;18.674;2022-07-06T08:06:41;5.07;;;3.67;;
65857;SDS011;53776;47.242;18.674;2022-07-06T08:09:07;6.60;;;3.65;;
65857;SDS011;53776;47.242;18.674;2022-07-06T08:11:36;4.82;;;3.45;;
65857;SDS011;53776;47.242;18.674;2022-07-06T08:14:02;8.15;;;3.83;;
65857;SDS011;53776;47.242;18.674;2022-07-06T08:16:28;8.50;;;4.10;;
65857;SDS011;53776;47.242;18.674;2022-07-06T08:18:53;6.80;;;3.53;;
65857;SDS011;53776;47.242;18.674;2022-07-06T08:21:19;6.15;;;3.83;;
65857;SDS011;53776;47.242;18.674;2022-07-06T08:23:45;4.78;;;3.70;;
65857;SDS011;53776;47.242;18.674;2022-07-06T08:26:10;8.13;;;3.88;;
65857;SDS011;53776;47.242;18.674;2022-07-06T08:28:36;6.65;;;3.95;;
65857;SDS011;53776;47.242;18.674;2022-07-06T08:31:01;7.63;;;3.92;;
65857;SDS011;53776;47.242;18.674;2022-07-06T08:33:26;4.15;;;3.40;;
65857;SDS011;53776;47.242;18.674;2022-07-06T08:35:52;7.47;;;4.07;;
65857;SDS011;53776;47.242;18.674;2022-07-06T08:38:17;4.75;;;3.70;;
65857;SDS011;53776;47.242;18.674;2022-07-06T08:40:43;5.82;;;3.50;;
65857;SDS011;53776;47.242;18.674;2022-07-06T08:43:14;6.22;;;4.00;;
65857;SDS011;53776;47.242;18.674;2022-07-06T08:45:39;6.05;;;3.80;;
65857;SDS011;53776;47.242;18.674;2022-07-06T08:48:09;6.40;;;3.70;;
65857;SDS011;53776;47.242;18.674;2022-07-06T08:50:36;6.90;;;3.72;;
65857;SDS011;53776;47.242;18.674;2022-07-06T08:53:02;4.85;;;3.80;;
65857;SDS011;53776;47.242;18.674;2022-07-06T08:55:29;7.00;;;3.50;;
65857;SDS011;53776;47.242;18.674;2022-07-06T08:57:55;5.15;;;3.33;;
65857;SDS011;53776;47.242;18.674;2022-07-06T09:00:22;5.13;;;3.80;;
65857;SDS011;53776;47.242;18.674;2022-07-06T09:02:48;4.97;;;3.60;;
65857;SDS011;53776;47.242;18.674;2022-07-06T09:05:21;5.45;;;3.90;;
65857;SDS011;53776;47.242;18.674;2022-07-06T09:07:50;8.75;;;3.78;;
65857;SDS011;53776;47.242;18.674;2022-07-06T09:10:18;6.07;;;4.10;;
65857;SDS011;53776;47.242;18.674;2022-07-06T09:12:44;7.75;;;3.83;;
65857;SDS011;53776;47.242;18.674;2022-07-06T09:15:10;6.32;;;3.90;;
65857;SDS011;53776;47.242;18.674;2022-07-06T09:17:39;4.55;;;3.35;;
65857;SDS011;53776;47.242;18.674;2022-07-06T09:20:09;7.35;;;3.22;;
65857;SDS011;53776;47.242;18.674;2022-07-06T09:22:36;6.85;;;3.72;;
65857;SDS011;53776;47.242;18.674;2022-07-06T09:27:36;6.15;;;3.60;;
65857;SDS011;53776;47.242;18.674;2022-07-06T09:30:12;5.40;;;3.50;;
65857;SDS011;53776;47.242;18.674;2022-07-06T09:32:39;6.10;;;3.40;;
65857;SDS011;53776;47.242;18.674;2022-07-06T09:35:24;4.50;;;3.17;;
65857;SDS011;53776;47.242;18.674;2022-07-06T09:40:51;8.50;;;3.25;;
65857;SDS011;53776;47.242;18.674;2022-07-06T09:43:17;4.20;;;3.22;;
65857;SDS011;53776;47.242;18.674;2022-07-06T09:45:53;8.07;;;3.75;;
65857;SDS011;53776;47.242;18.674;2022-07-06T09:48:20;4.63;;;3.10;;
65857;SDS011;53776;47.242;18.674;2022-07-06T09:50:52;3.70;;;3.00;;
65857;SDS011;53776;47.242;18.674;2022-07-06T09:53:22;4.38;;;3.08;;
65857;SDS011;53776;47.242;18.674;2022-07-06T09:55:50;5.57;;;2.70;;
65857;SDS011;53776;47.242;18.674;2022-07-06T09:58:17;4.50;;;3.03;;
65857;SDS011;53776;47.242;18.674;2022-07-06T10:00:47;9.88;;;2.90;;
65857;SDS011;53776;47.242;18.674;2022-07-06T10:03:14;7.50;;;3.05;;
65857;SDS011;53776;47.242;18.674;2022-07-06T10:05:41;5.55;;;2.45;;
65857;SDS011;53776;47.242;18.674;2022-07-06T10:10:34;3.20;;;2.50;;
65857;SDS011;53776;47.242;18.674;2022-07-06T10:13:04;3.85;;;2.50;;
65857;SDS011;53776;47.242;18.674;2022-07-06T10:15:31;2.65;;;2.40;;
65857;SDS011;53776;47.242;18.674;2022-07-06T10:17:57;8.55;;;2.40;;
65857;SDS011;53776;47.242;18.674;2022-07-06T10:20:24;3.30;;;2.60;;
65857;SDS011;53776;47.242;18.674;2022-07-06T10:22:52;2.95;;;2.50;;
65857;SDS011;53776;47.242;18.674;2022-07-06T10:25:19;7.65;;;2.33;;
65857;SDS011;53776;47.242;18.674;2022-07-06T10:27:45;4.00;;;2.50;;
65857;SDS011;53776;47.242;18.674;2022-07-06T10:30:12;3.53;;;2.60;;
65857;SDS011;53776;47.242;18.674;2022-07-06T10:32:39;6.90;;;2.67;;
65857;SDS011;53776;47.242;18.674;2022-07-06T10:35:07;7.05;;;2.20;;
65857;SDS011;53776;47.242;18.674;2022-07-06T10:37:33;4.97;;;2.47;;
65857;SDS011;53776;47.242;18.674;2022-07-06T10:39:59;9.15;;;2.30;;
65857;SDS011;53776;47.242;18.674;2022-07-06T10:42:56;9.40;;;2.53;;
65857;SDS011;53776;47.242;18.674;2022-07-06T10:50:50;6.68;;;2.30;;
65857;SDS011;53776;47.242;18.674;2022-07-06T10:53:27;4.07;;;2.10;;
65857;SDS011;53776;47.242;18.674;2022-07-06T10:55:56;5.30;;;2.35;;
65857;SDS011;53776;47.242;18.674;2022-07-06T10:58:34;2.90;;;2.13;;
65857;SDS011;53776;47.242;18.674;2022-07-06T11:01:05;7.63;;;2.83;;
65857;SDS011;53776;47.242;18.674;2022-07-06T11:03:44;3.53;;;2.10;;
65857;SDS011;53776;47.242;18.674;2022-07-06T11:08:53;4.85;;;2.20;;
65857;SDS011;53776;47.242;18.674;2022-07-06T11:13:53;4.93;;;2.08;;
65857;SDS011;53776;47.242;18.674;2022-07-06T11:19:00;8.43;;;2.20;;
65857;SDS011;53776;47.242;18.674;2022-07-06T11:21:36;3.92;;;2.05;;
65857;SDS011;53776;47.242;18.674;2022-07-06T11:24:07;2.20;;;1.90;;
65857;SDS011;53776;47.242;18.674;2022-07-06T11:26:35;4.13;;;2.13;;
65857;SDS011;53776;47.242;18.674;2022-07-06T11:29:02;8.73;;;2.08;;
65857;SDS011;53776;47.242;18.674;2022-07-06T11:31:30;6.10;;;2.20;;
65857;SDS011;53776;47.242;18.674;2022-07-06T11:33:58;6.13;;;2.03;;
65857;SDS011;53776;47.242;18.674;2022-07-06T11:36:23;3.47;;;1.83;;
65857;SDS011;53776;47.242;18.674;2022-07-06T11:38:49;6.13;;;2.10;;
65857;SDS011;53776;47.242;18.674;2022-07-06T11:41:16;6.45;;;2.15;;
65857;SDS011;53776;47.242;18.674;2022-07-06T11:43:45;6.05;;;2.17;;
65857;SDS011;53776;47.242;18.674;2022-07-06T11:46:31;3.70;;;1.70;;
65857;SDS011;53776;47.242;18.674;2022-07-06T11:49:02;7.47;;;1.80;;
65857;SDS011;53776;47.242;18.674;2022-07-06T11:51:38;2.75;;;1.77;;
65857;SDS011;53776;47.242;18.674;2022-07-06T11:54:17;1.95;;;1.80;;
65857;SDS011;53776;47.242;18.674;2022-07-06T11:56:51;4.18;;;1.70;;
65857;SDS011;53776;47.242;18.674;2022-07-06T11:59:27;1.70;;;1.60;;
65857;SDS011;53776;47.242;18.674;2022-07-06T12:02:09;10.90;;;1.95;;
65857;SDS011;53776;47.242;18.674;2022-07-06T12:04:37;3.40;;;1.90;;
65857;SDS011;53776;47.242;18.674;2022-07-06T12:07:08;5.53;;;1.77;;
65857;SDS011;53776;47.242;18.674;2022-07-06T12:09:37;6.53;;;2.15;;
65857;SDS011;53776;47.242;18.674;2022-07-06T12:12:03;10.00;;;2.15;;
65857;SDS011;53776;47.242;18.674;2022-07-06T12:14:30;4.82;;;2.00;;
65857;SDS011;53776;47.242;18.674;2022-07-06T12:17:02;3.17;;;1.98;;
65857;SDS011;53776;47.242;18.674;2022-07-06T12:19:29;8.25;;;2.00;;
65857;SDS011;53776;47.242;18.674;2022-07-06T12:21:54;5.93;;;2.38;;
65857;SDS011;53776;47.242;18.674;2022-07-06T12:24:22;7.82;;;2.30;;
65857;SDS011;53776;47.242;18.674;2022-07-06T12:26:52;4.43;;;2.00;;
65857;SDS011;53776;47.242;18.674;2022-07-06T12:29:19;4.63;;;2.10;;
65857;SDS011;53776;47.242;18.674;2022-07-06T12:36:49;4.22;;;2.28;;
65857;SDS011;53776;47.242;18.674;2022-07-06T12:39:17;2.83;;;2.30;;
65857;SDS011;53776;47.242;18.674;2022-07-06T12:41:47;4.10;;;2.17;;
65857;SDS011;53776;47.242;18.674;2022-07-06T12:44:16;5.78;;;2.15;;
65857;SDS011;53776;47.242;18.674;2022-07-06T12:46:46;2.40;;;2.10;;
65857;SDS011;53776;47.242;18.674;2022-07-06T12:49:16;2.70;;;2.10;;
65857;SDS011;53776;47.242;18.674;2022-07-06T12:54:20;6.75;;;2.17;;
65857;SDS011;53776;47.242;18.674;2022-07-06T12:56:57;3.78;;;2.10;;
65857;SDS011;53776;47.242;18.674;2022-07-06T12:59:48;3.45;;;1.70;;
65857;SDS011;53776;47.242;18.674;2022-07-06T13:02:24;5.35;;;1.70;;
65857;SDS011;53776;47.242;18.674;2022-07-06T13:07:31;3.13;;;1.73;;
65857;SDS011;53776;47.242;18.674;2022-07-06T13:10:01;4.57;;;1.90;;
65857;SDS011;53776;47.242;18.674;2022-07-06T13:12:27;3.58;;;1.75;;
65857;SDS011;53776;47.242;18.674;2022-07-06T13:14:53;4.25;;;1.55;;
65857;SDS011;53776;47.242;18.674;2022-07-06T13:17:18;2.75;;;1.90;;
65857;SDS011;53776;47.242;18.674;2022-07-06T13:19:44;5.55;;;1.88;;
65857;SDS011;53776;47.242;18.674;2022-07-06T13:22:09;7.15;;;2.15;;
65857;SDS011;53776;47.242;18.674;2022-07-06T13:24:35;4.07;;;1.92;;
65857;SDS011;53776;47.242;18.674;2022-07-06T13:27:00;2.72;;;1.70;;
65857;SDS011;53776;47.242;18.674;2022-07-06T13:29:26;3.03;;;1.77;;
65857;SDS011;53776;47.242;18.674;2022-07-06T13:31:52;6.00;;;1.65;;
65857;SDS011;53776;47.242;18.674;2022-07-06T13:34:17;3.20;;;1.63;;
65857;SDS011;53776;47.242;18.674;2022-07-06T13:36:43;13.82;;;1.75;;
65857;SDS011;53776;47.242;18.674;2022-07-06T13:39:09;4.05;;;1.67;;
65857;SDS011;53776;47.242;18.674;2022-07-06T13:41:34;8.10;;;1.95;;
65857;SDS011;53776;47.242;18.674;2022-07-06T13:44:00;8.65;;;1.92;;
65857;SDS011;53776;47.242;18.674;2022-07-06T13:46:26;14.05;;;2.80;;
65857;SDS011;53776;47.242;18.674;2022-07-06T13:48:53;2.63;;;1.60;;
65857;SDS011;53776;47.242;18.674;2022-07-06T13:51:19;8.55;;;2.05;;
65857;SDS011;53776;47.242;18.674;2022-07-06T13:53:44;4.85;;;1.73;;
65857;SDS011;53776;47.242;18.674;2022-07-06T13:56:10;5.75;;;1.90;;
65857;SDS011;53776;47.242;18.674;2022-07-06T13:58:36;5.20;;;1.90;;
65857;SDS011;53776;47.242;18.674;2022-07-06T14:01:02;5.72;;;1.80;;
65857;SDS011;53776;47.242;18.674;2022-07-06T14:03:28;3.70;;;1.83;;
65857;SDS011;53776;47.242;18.674;2022-07-06T14:06:04;8.15;;;1.80;;
65857;SDS011;53776;47.242;18.674;2022-07-06T14:08:36;6.88;;;1.77;;
65857;SDS011;53776;47.242;18.674;2022-07-06T14:11:03;3.03;;;1.88;;
65857;SDS011;53776;47.242;18.674;2022-07-06T14:13:30;5.28;;;2.00;;
65857;SDS011;53776;47.242;18.674;2022-07-06T14:15:56;6.55;;;2.30;;
65857;SDS011;53776;47.242;18.674;2022-07-06T14:18:22;5.05;;;1.88;;
65857;SDS011;53776;47.242;18.674;2022-07-06T14:20:47;12.02;;;2.03;;
65857;SDS011;53776;47.242;18.674;2022-07-06T14:23:14;6.47;;;2.15;;
65857;SDS011;53776;47.242;18.674;2022-07-06T14:25:41;2.65;;;1.90;;
65857;SDS011;53776;47.242;18.674;2022-07-06T14:28:08;3.92;;;1.70;;
65857;SDS011;53776;47.242;18.674;2022-07-06T14:30:35;7.63;;;1.77;;
65857;SDS011;53776;47.242;18.674;2022-07-06T14:33:04;5.15;;;1.90;;
65857;SDS011;53776;47.242;18.674;2022-07-06T14:35:32;2.15;;;1.63;;
65857;SDS011;53776;47.242;18.674;2022-07-06T14:38:00;5.65;;;2.30;;
65857;SDS011;53776;47.242;18.674;2022-07-06T14:40:25;2.50;;;1.90;;
65857;SDS011;53776;47.242;18.674;2022-07-06T14:42:51;2.75;;;1.92;;
65857;SDS011;53776;47.242;18.674;2022-07-06T14:45:16;5.68;;;1.77;;
65857;SDS011;53776;47.242;18.674;2022-07-06T14:47:41;4.25;;;1.90;;
65857;SDS011;53776;47.242;18.674;2022-07-06T14:50:07;1.88;;;1.73;;
65857;SDS011;53776;47.242;18.674;2022-07-06T14:52:33;2.08;;;1.88;;
65857;SDS011;53776;47.242;18.674;2022-07-06T14:54:58;4.38;;;1.75;;
65857;SDS011;53776;47.242;18.674;2022-07-06T14:57:25;4.40;;;1.73;;
65857;SDS011;53776;47.242;18.674;2022-07-06T14:59:50;4.13;;;1.80;;
65857;SDS011;53776;47.242;18.674;2022-07-06T15:02:16;1.60;;;1.50;;
65857;SDS011;53776;47.242;18.674;2022-07-06T15:04:41;2.65;;;1.50;;
65857;SDS011;53776;47.242;18.674;2022-07-06T15:07:07;4.95;;;1.52;;